createdAt,value
2022-09-13T06:34:50.396Z,272.37
2022-09-13T06:37:20.089Z,259.07
2022-09-13T06:39:49.893Z,249.07
2022-09-13T06:42:19.720Z,254.17
2022-09-13T06:44:49.389Z,240.57
2022-09-13T06:47:19.143Z,243.57
2022-09-13T06:49:48.787Z,237.03
2022-09-13T06:52:18.922Z,235.67
2022-09-13T06:54:48.601Z,253.50
2022-09-13T06:57:18.255Z,238.53
2022-09-13T06:59:48.032Z,255.33
2022-09-13T07:02:17.694Z,252.00
2022-09-13T07:04:47.406Z,238.67
2022-09-13T07:07:16.965Z,248.27
2022-09-13T07:09:46.557Z,244.33
2022-09-13T07:12:20.031Z,265.83
2022-09-13T07:14:50.293Z,255.10
2022-09-13T07:17:19.943Z,272.20
2022-09-13T07:19:49.687Z,267.33
2022-09-13T07:22:19.349Z,273.37
2022-09-13T07:24:49.043Z,272.40
2022-09-13T07:27:18.722Z,275.13
2022-09-13T07:29:48.356Z,267.10
2022-09-13T07:32:17.980Z,279.70
2022-09-13T07:34:47.712Z,286.63
2022-09-13T07:37:17.329Z,281.97
2022-09-13T07:39:47.713Z,282.00
2022-09-13T07:42:17.489Z,290.83
2022-09-13T07:44:47.229Z,291.83
2022-09-13T07:47:16.863Z,295.90
2022-09-13T07:49:46.912Z,292.83
2022-09-13T07:52:16.637Z,302.13
2022-09-13T07:54:47.956Z,299.00
2022-09-13T07:57:17.534Z,304.23
2022-09-13T07:59:47.686Z,307.37
2022-09-13T08:02:19.742Z,303.93
2022-09-13T08:04:49.415Z,308.23
2022-09-13T08:07:19.102Z,320.83
2022-09-13T08:09:48.885Z,325.03
2022-09-13T08:12:18.499Z,323.07
2022-09-13T08:14:48.120Z,322.00
2022-09-13T08:17:17.738Z,321.87
2022-09-13T08:19:47.349Z,320.40
2022-09-13T08:22:16.931Z,330.53
2022-09-13T08:24:46.724Z,328.70
2022-09-13T08:27:16.359Z,332.40
2022-09-13T08:29:46.299Z,337.90
2022-09-13T08:32:15.945Z,341.43
2022-09-13T08:34:45.555Z,354.00
2022-09-13T08:37:15.744Z,355.67
2022-09-13T08:39:45.575Z,359.97
2022-09-13T08:42:33.594Z,382.33
2022-09-13T08:45:03.541Z,360.80
2022-09-13T08:47:42.387Z,373.80
2022-09-13T08:50:30.059Z,367.57
2022-09-13T08:52:59.574Z,373.37
2022-09-13T08:55:43.511Z,375.43
2022-09-13T08:58:42.670Z,377.13
2022-09-13T09:01:25.057Z,371.23
2022-09-13T09:03:54.787Z,376.53
2022-09-13T09:06:25.473Z,391.23
2022-09-13T09:09:02.537Z,397.47
2022-09-13T09:11:38.669Z,412.63
2022-09-13T09:14:27.977Z,402.13
2022-09-13T09:17:04.519Z,418.50
2022-09-13T09:19:48.010Z,421.10
2022-09-13T09:22:24.441Z,412.30
2022-09-13T09:24:57.696Z,424.93
2022-09-13T09:27:27.880Z,429.10
2022-09-13T09:30:00.867Z,441.10
2022-09-13T09:32:36.346Z,448.77
2022-09-13T09:35:34.142Z,446.90
2022-09-13T09:38:27.475Z,452.87
2022-09-13T09:40:57.784Z,463.53
2022-09-13T09:43:33.579Z,465.27
2022-09-13T09:46:05.679Z,460.40
2022-09-13T09:48:44.579Z,462.17
2022-09-13T09:51:17.996Z,467.63
2022-09-13T09:53:51.974Z,468.70
2022-09-13T09:56:29.582Z,487.87
2022-09-13T09:58:59.350Z,482.13
2022-09-13T10:01:34.015Z,491.87
2022-09-13T10:04:24.015Z,503.90
2022-09-13T10:07:15.077Z,518.53
2022-09-13T10:10:04.508Z,517.47
2022-09-13T10:12:37.714Z,511.90
2022-09-13T10:15:08.982Z,512.70
2022-09-13T10:17:39.123Z,523.47
2022-09-13T10:20:17.535Z,535.33
2022-09-13T10:22:48.254Z,526.60
2022-09-13T10:25:25.888Z,529.13
2022-09-13T10:28:01.727Z,536.17
2022-09-13T10:30:45.111Z,545.80
2022-09-13T10:33:30.750Z,547.97
2022-09-13T10:36:07.540Z,547.33
2022-09-13T10:38:45.519Z,553.00
2022-09-13T10:41:26.106Z,559.83
2022-09-13T10:44:09.733Z,559.43
2022-09-13T10:46:43.198Z,550.37
2022-09-13T10:49:43.719Z,561.90
2022-09-13T10:52:34.841Z,560.80
2022-09-13T10:55:22.841Z,565.40
2022-09-13T10:58:05.789Z,560.83
2022-09-13T11:00:44.746Z,557.17
2022-09-13T11:03:33.175Z,561.27
2022-09-13T11:06:33.558Z,564.90
2022-09-13T11:09:12.274Z,563.23
2022-09-13T11:12:06.776Z,573.13
2022-09-13T11:15:05.319Z,569.87
2022-09-13T11:17:59.462Z,574.93
2022-09-13T11:20:52.403Z,583.87
2022-09-13T11:23:40.216Z,577.33
2022-09-13T11:26:24.220Z,593.17
2022-09-13T11:29:27.608Z,598.20
2022-09-13T11:32:27.670Z,594.07
2022-09-13T11:35:20.583Z,591.63
2022-09-13T11:38:28.915Z,609.50
2022-09-13T11:41:33.309Z,603.00
2022-09-13T11:44:08.837Z,612.20
2022-09-13T11:46:49.063Z,607.67
2022-09-13T11:49:30.704Z,609.93
2022-09-13T11:52:36.293Z,626.33
2022-09-13T11:55:28.522Z,626.03
2022-09-13T11:58:07.162Z,622.03
2022-09-13T12:01:00.160Z,617.30
2022-09-13T12:04:05.426Z,623.17
2022-09-13T12:06:45.875Z,626.30
2022-09-13T12:09:19.267Z,638.27
2022-09-13T12:11:56.062Z,645.07
2022-09-13T12:14:28.915Z,649.60
2022-09-13T12:17:05.894Z,643.53
2022-09-13T12:19:58.726Z,646.23
2022-09-13T12:22:35.390Z,643.20
2022-09-13T12:25:28.718Z,656.00
2022-09-13T12:28:22.821Z,654.90
2022-09-13T12:31:22.410Z,665.87
2022-09-13T12:33:52.221Z,672.97
2022-09-13T12:36:30.550Z,667.90
2022-09-13T12:39:27.227Z,680.77
2022-09-13T12:42:08.886Z,671.10
2022-09-13T12:44:54.215Z,685.40
2022-09-13T12:47:54.839Z,700.33
2022-09-13T12:50:49.958Z,707.77
2022-09-13T12:53:38.792Z,716.43
2022-09-13T12:56:14.223Z,737.90
2022-09-13T12:59:28.902Z,732.63
2022-09-13T13:02:00.419Z,744.40
2022-09-13T13:04:39.174Z,751.83
2022-09-13T13:07:21.722Z,757.83
2022-09-13T13:09:57.585Z,765.07
2022-09-13T13:12:39.154Z,777.87
2022-09-13T13:15:17.846Z,777.70
2022-09-13T13:17:50.456Z,789.23
2022-09-13T13:20:41.771Z,803.80
2022-09-13T13:23:34.678Z,792.03
2022-09-13T13:26:45.185Z,929.28
2022-09-13T13:29:23.469Z,821.63
2022-09-13T13:32:04.210Z,822.70
2022-09-13T13:34:39.150Z,813.40
2022-09-13T13:37:31.755Z,820.40
2022-09-13T13:40:29.759Z,830.10
2022-09-13T13:43:35.158Z,837.20
2022-09-13T13:46:13.884Z,841.43
2022-09-13T13:48:44.712Z,843.27
2022-09-13T13:51:14.403Z,861.00
2022-09-13T13:54:03.353Z,852.07
2022-09-13T13:56:48.978Z,836.93
2022-09-13T13:59:25.857Z,839.90
2022-09-13T14:01:59.564Z,860.70
2022-09-13T14:05:08.357Z,845.13
2022-09-13T14:07:53.712Z,842.83
2022-09-13T14:10:34.160Z,833.23
2022-09-13T14:13:25.393Z,832.50
2022-09-13T14:16:00.831Z,817.43
2022-09-13T14:19:02.918Z,826.90
2022-09-13T14:21:33.691Z,810.50
2022-09-13T14:24:26.923Z,802.40
2022-09-13T14:27:04.931Z,810.63
2022-09-13T14:29:37.123Z,789.53
2022-09-13T14:32:10.845Z,787.87
2022-09-13T14:34:41.942Z,792.90
2022-09-13T14:37:21.988Z,775.97
2022-09-13T14:40:11.331Z,604.37
2022-09-13T14:42:51.927Z,809.47
2022-09-13T14:45:39.561Z,792.80
2022-09-13T14:48:26.975Z,788.53
2022-09-13T14:51:09.304Z,779.10
2022-09-13T14:53:39.628Z,781.27
2022-09-13T14:56:16.770Z,776.30
2022-09-13T14:58:53.913Z,767.97
2022-09-13T15:01:30.903Z,765.20
2022-09-13T15:04:02.844Z,757.10
2022-09-13T15:06:36.113Z,749.00
2022-09-13T15:09:14.856Z,753.70
2022-09-13T15:11:46.739Z,745.23
2022-09-13T15:14:27.212Z,746.40
2022-09-13T15:17:17.103Z,732.73
2022-09-13T15:19:52.569Z,730.83
2022-09-13T15:22:28.021Z,722.40
2022-09-13T15:25:01.034Z,716.23
2022-09-13T15:27:34.338Z,712.23
2022-09-13T15:30:06.738Z,695.27
2022-09-13T15:32:46.671Z,685.03
2022-09-13T15:35:25.772Z,692.03
2022-09-13T15:38:17.846Z,676.53
2022-09-13T15:40:50.304Z,674.63
2022-09-13T15:43:19.939Z,674.10
2022-09-13T15:45:49.831Z,661.43
2022-09-13T15:48:29.452Z,669.70
2022-09-13T15:51:16.605Z,662.77
2022-09-13T15:53:48.436Z,648.43
2022-09-13T15:56:21.797Z,643.33
2022-09-13T15:58:51.987Z,631.83
2022-09-13T16:01:21.697Z,632.43
2022-09-13T16:03:51.467Z,621.03
2022-09-13T16:06:24.586Z,634.33
2022-09-13T16:08:54.758Z,615.93
2022-09-13T16:11:27.133Z,614.10
2022-09-13T16:13:58.852Z,622.63
2022-09-13T16:16:28.740Z,612.03
2022-09-13T16:18:58.618Z,601.80
2022-09-13T16:21:29.794Z,590.00
2022-09-13T16:23:59.649Z,592.03
2022-09-13T16:26:29.415Z,592.30
2022-09-13T16:28:59.019Z,590.03
2022-09-13T16:31:28.874Z,586.67
2022-09-13T16:33:58.623Z,581.93
2022-09-13T16:36:28.967Z,572.10
2022-09-13T16:38:59.961Z,583.87
2022-09-13T16:41:29.707Z,581.70
2022-09-13T16:43:59.747Z,580.97
2022-09-13T16:46:30.962Z,588.53
2022-09-13T16:49:01.220Z,583.27
2022-09-13T16:51:31.039Z,571.57
2022-09-13T16:54:00.705Z,561.87
2022-09-13T16:56:30.593Z,575.70
2022-09-13T16:59:00.304Z,571.30
2022-09-13T17:01:31.540Z,561.27
2022-09-13T17:04:01.979Z,553.10
2022-09-13T17:06:31.634Z,563.27
2022-09-13T17:09:05.543Z,551.43
2022-09-13T17:11:38.480Z,559.27
2022-09-13T17:14:09.921Z,539.30
2022-09-13T17:16:41.429Z,546.13
2022-09-13T17:19:16.370Z,548.53
2022-09-13T17:21:46.913Z,528.00
2022-09-13T17:24:17.702Z,535.33
2022-09-13T17:26:48.122Z,532.10
2022-09-13T17:29:18.300Z,531.07
2022-09-13T17:31:48.271Z,531.27
2022-09-13T17:34:17.875Z,520.13
2022-09-13T17:36:51.025Z,524.37
2022-09-13T17:39:21.452Z,510.93
2022-09-13T17:41:51.617Z,513.47
2022-09-13T17:44:21.256Z,508.90
2022-09-13T17:46:51.048Z,508.20
2022-09-13T17:49:20.767Z,510.17
2022-09-13T17:51:50.526Z,497.07
2022-09-13T17:54:20.222Z,499.33
2022-09-13T17:56:49.862Z,499.27
2022-09-13T17:59:22.139Z,490.13
2022-09-13T18:01:56.661Z,495.77
2022-09-13T18:04:27.708Z,497.67
2022-09-13T18:06:57.717Z,488.03
2022-09-13T18:09:27.520Z,489.07
2022-09-13T18:11:57.146Z,488.47
2022-09-13T18:14:27.818Z,489.37
2022-09-13T18:16:58.133Z,491.77
2022-09-13T18:19:44.929Z,486.13
2022-09-13T18:22:15.999Z,479.10
2022-09-13T18:24:45.934Z,475.67
2022-09-13T18:27:15.575Z,483.60
2022-09-13T18:29:45.190Z,478.53
2022-09-13T18:32:15.006Z,474.63
2022-09-13T18:34:44.740Z,492.83
2022-09-13T18:37:15.565Z,476.97
2022-09-13T18:39:46.356Z,475.93
2022-09-13T18:42:16.130Z,475.77
2022-09-13T18:44:46.511Z,473.37
2022-09-13T18:47:16.535Z,483.13
2022-09-13T18:49:46.285Z,475.47
2022-09-13T18:52:16.610Z,473.93
2022-09-13T18:54:46.343Z,480.43
2022-09-13T18:57:16.412Z,468.27
2022-09-13T18:59:46.030Z,470.87
2022-09-13T19:02:15.973Z,471.13
2022-09-13T19:04:45.769Z,457.37
2022-09-13T19:07:15.507Z,475.77
2022-09-13T19:09:45.100Z,471.43
2022-09-13T19:12:14.714Z,458.60
2022-09-13T19:14:44.613Z,462.27
2022-09-13T19:17:14.334Z,460.57
2022-09-13T19:19:43.971Z,461.07
2022-09-13T19:22:13.624Z,453.83
2022-09-13T19:24:43.577Z,456.17
2022-09-13T19:27:13.492Z,462.63
2022-09-13T19:29:43.155Z,460.70
2022-09-13T19:32:12.727Z,469.63
2022-09-13T19:34:42.399Z,462.27
2022-09-13T19:37:12.069Z,466.97
2022-09-13T19:39:42.392Z,447.63
2022-09-13T19:42:12.062Z,455.90
2022-09-13T19:44:41.786Z,471.23
2022-09-13T19:50:01.390Z,449.87
2022-09-13T19:52:31.158Z,447.27
2022-09-13T19:55:00.745Z,457.90
2022-09-13T19:57:30.886Z,463.57
2022-09-13T20:00:00.564Z,451.07
2022-09-13T20:02:30.161Z,445.97
2022-09-13T20:05:00.057Z,446.87
2022-09-13T20:07:29.711Z,445.73
2022-09-13T20:10:01.481Z,442.03
2022-09-13T20:12:31.230Z,444.90
2022-09-13T20:15:00.860Z,443.73
2022-09-13T20:17:30.491Z,438.03
2022-09-13T20:20:02.160Z,433.47
2022-09-13T20:22:31.759Z,428.63
2022-09-13T20:25:01.440Z,435.23
2022-09-13T20:27:32.866Z,447.73
2022-09-13T20:30:04.539Z,435.07
2022-09-13T20:32:34.431Z,445.43
2022-09-13T20:35:04.139Z,435.73
2022-09-13T20:37:34.523Z,432.27
2022-09-13T20:40:04.508Z,434.17
2022-09-13T20:42:34.590Z,428.73
2022-09-13T20:45:04.442Z,435.20
2022-09-13T20:47:36.689Z,440.37
2022-09-13T20:50:08.083Z,439.97
2022-09-13T20:52:37.904Z,419.53
2022-09-13T20:55:07.962Z,426.47
2022-09-13T20:57:38.577Z,444.10
2022-09-13T21:00:09.165Z,434.93
2022-09-13T21:02:38.821Z,417.37
2022-09-13T21:05:09.056Z,430.20
2022-09-13T21:07:51.067Z,427.17
2022-09-13T21:10:21.279Z,425.67
2022-09-13T21:12:54.834Z,423.40
2022-09-13T21:15:24.683Z,422.40
2022-09-13T21:17:54.386Z,420.77
2022-09-13T21:20:24.236Z,423.27
2022-09-13T21:22:55.289Z,416.13
2022-09-13T21:25:25.508Z,424.80
2022-09-13T21:27:55.505Z,423.07
2022-09-13T21:30:26.021Z,412.43
2022-09-13T21:32:55.658Z,416.80
2022-09-13T21:35:25.394Z,413.00
2022-09-13T21:37:54.978Z,409.43
2022-09-13T21:40:24.595Z,403.10
2022-09-13T21:42:54.284Z,416.03
2022-09-13T21:45:24.052Z,408.27
2022-09-13T21:47:53.647Z,412.57
2022-09-13T21:50:23.398Z,405.97
2022-09-13T21:52:53.042Z,406.73
2022-09-13T21:55:22.762Z,422.70
2022-09-13T21:57:52.459Z,400.90
2022-09-13T22:00:23.039Z,412.80
2022-09-13T22:02:52.687Z,420.00
2022-09-13T22:05:22.714Z,409.30
2022-09-13T22:07:52.338Z,414.70
2022-09-13T22:10:21.958Z,406.10
2022-09-13T22:12:51.634Z,405.23
2022-09-13T22:15:21.363Z,404.77
2022-09-13T22:17:51.061Z,405.90
2022-09-13T22:20:20.640Z,413.03
2022-09-13T22:22:50.245Z,407.27
2022-09-13T22:25:19.817Z,399.87
2022-09-13T22:27:49.536Z,388.63
2022-09-13T22:30:19.244Z,405.83
2022-09-13T22:32:49.271Z,403.30
2022-09-13T22:35:18.950Z,400.67
2022-09-13T22:37:48.674Z,404.13
2022-09-13T22:40:19.270Z,394.27
2022-09-13T22:42:50.707Z,408.10
2022-09-13T22:45:20.556Z,396.87
2022-09-13T22:47:50.160Z,397.90
2022-09-13T22:50:19.795Z,403.67
2022-09-13T22:52:49.555Z,399.33
2022-09-13T22:55:19.230Z,396.43
2022-09-13T22:57:48.855Z,398.83
2022-09-13T23:00:18.710Z,401.73
2022-09-13T23:02:48.303Z,402.50
2022-09-13T23:05:18.350Z,397.53
2022-09-13T23:07:48.026Z,404.90
2022-09-13T23:10:17.616Z,399.23
2022-09-13T23:12:47.666Z,394.53
2022-09-13T23:15:17.493Z,386.47
2022-09-13T23:17:47.123Z,402.00
2022-09-13T23:20:16.854Z,398.87
2022-09-13T23:22:46.437Z,392.67
2022-09-13T23:25:16.199Z,391.17
2022-09-13T23:27:46.269Z,390.33
2022-09-13T23:30:16.060Z,387.80
2022-09-13T23:32:45.673Z,378.60
2022-09-13T23:35:15.263Z,391.60
2022-09-13T23:37:44.918Z,383.13
2022-09-13T23:40:14.996Z,384.43
2022-09-13T23:42:44.731Z,376.23
2022-09-13T23:45:15.015Z,375.20
2022-09-13T23:47:44.746Z,280.80
2022-09-13T23:50:14.737Z,375.70
2022-09-13T23:52:44.911Z,377.97
2022-09-13T23:55:14.823Z,371.20
2022-09-13T23:57:44.518Z,380.63
